sensor_id;sensor_type;location;lat;lon;timestamp;pressure;altitude;pressure_sealevel;temperature;humidity
25156;BME280;21913;52.456;13.634;2023-03-23T00:02:47;99181.94;;;11.96;74.10
25156;BME280;21913;52.456;13.634;2023-03-23T00:07:47;99180.19;;;11.97;74.04
25156;BME280;21913;52.456;13.634;2023-03-23T00:12:48;99181.94;;;11.96;74.02
25156;BME280;21913;52.456;13.634;2023-03-23T00:17:48;99166.38;;;11.96;73.98
25156;BME280;21913;52.456;13.634;2023-03-23T00:22:48;99163.78;;;11.96;74.09
25156;BME280;21913;52.456;13.634;2023-03-23T00:27:49;99162.91;;;11.97;74.10
25156;BME280;21913;52.456;13.634;2023-03-23T00:32:49;99150.81;;;11.96;74.15
25156;BME280;21913;52.456;13.634;2023-03-23T00:37:50;99144.75;;;11.97;74.00
25156;BME280;21913;52.456;13.634;2023-03-23T00:42:50;99132.69;;;11.96;74.14
25156;BME280;21913;52.456;13.634;2023-03-23T00:47:50;99127.50;;;11.96;73.98
25156;BME280;21913;52.456;13.634;2023-03-23T00:52:51;99132.69;;;11.96;73.95
25156;BME280;21913;52.456;13.634;2023-03-23T00:57:51;99134.38;;;11.97;73.95
25156;BME280;21913;52.456;13.634;2023-03-23T01:02:53;99118.84;;;11.96;74.11
25156;BME280;21913;52.456;13.634;2023-03-23T01:07:53;99112.78;;;11.97;73.93
25156;BME280;21913;52.456;13.634;2023-03-23T01:12:54;99120.56;;;11.97;74.16
25156;BME280;21913;52.456;13.634;2023-03-23T01:17:56;99120.56;;;11.97;74.22
25156;BME280;21913;52.456;13.634;2023-03-23T01:22:58;99106.75;;;11.96;74.05
25156;BME280;21913;52.456;13.634;2023-03-23T01:27:58;99105.88;;;11.97;74.17
25156;BME280;21913;52.456;13.634;2023-03-23T01:32:59;99105.88;;;11.97;74.18
25156;BME280;21913;52.456;13.634;2023-03-23T01:37:59;99105.00;;;11.97;74.16
25156;BME280;21913;52.456;13.634;2023-03-23T01:43:00;99105.88;;;11.97;74.20
25156;BME280;21913;52.456;13.634;2023-03-23T01:48:04;99107.56;;;11.98;74.07
25156;BME280;21913;52.456;13.634;2023-03-23T01:53:07;99103.28;;;11.97;74.12
25156;BME280;21913;52.456;13.634;2023-03-23T01:58:10;99099.78;;;11.98;74.17
25156;BME280;21913;52.456;13.634;2023-03-23T02:03:12;99100.69;;;11.97;74.11
25156;BME280;21913;52.456;13.634;2023-03-23T02:08:14;99090.31;;;11.97;74.10
25156;BME280;21913;52.456;13.634;2023-03-23T02:13:15;99087.69;;;11.99;74.15
25156;BME280;21913;52.456;13.634;2023-03-23T02:23:45;99092.91;;;11.97;74.17
25156;BME280;21913;52.456;13.634;2023-03-23T02:39:22;99051.44;;;11.97;74.13
25156;BME280;21913;52.456;13.634;2023-03-23T02:44:26;99043.66;;;11.97;74.13
25156;BME280;21913;52.456;13.634;2023-03-23T02:49:29;99054.88;;;11.98;74.17
25156;BME280;21913;52.456;13.634;2023-03-23T02:54:31;99048.84;;;11.97;74.21
25156;BME280;21913;52.456;13.634;2023-03-23T02:59:32;99047.09;;;11.98;74.07
25156;BME280;21913;52.456;13.634;2023-03-23T03:04:33;99059.19;;;11.97;74.07
25156;BME280;21913;52.456;13.634;2023-03-23T03:20:22;99035.03;;;11.97;74.20
25156;BME280;21913;52.456;13.634;2023-03-23T03:25:24;99009.94;;;11.97;74.20
25156;BME280;21913;52.456;13.634;2023-03-23T03:30:29;98999.56;;;11.97;74.14
25156;BME280;21913;52.456;13.634;2023-03-23T03:35:36;98976.25;;;11.97;74.07
25156;BME280;21913;52.456;13.634;2023-03-23T03:40:38;98990.06;;;11.98;74.07
25156;BME280;21913;52.456;13.634;2023-03-23T03:45:39;98991.81;;;11.97;74.14
25156;BME280;21913;52.456;13.634;2023-03-23T03:50:39;99000.44;;;11.98;74.00
25156;BME280;21913;52.456;13.634;2023-03-23T03:55:40;99011.66;;;11.98;74.03
25156;BME280;21913;52.456;13.634;2023-03-23T04:00:44;99000.44;;;11.98;74.25
25156;BME280;21913;52.456;13.634;2023-03-23T04:05:45;99013.38;;;11.98;74.22
25156;BME280;21913;52.456;13.634;2023-03-23T04:10:47;99006.47;;;11.98;74.06
25156;BME280;21913;52.456;13.634;2023-03-23T04:15:47;99019.44;;;11.98;74.21
25156;BME280;21913;52.456;13.634;2023-03-23T04:20:49;99016.84;;;11.98;74.12
25156;BME280;21913;52.456;13.634;2023-03-23T04:25:53;98997.84;;;11.98;74.08
25156;BME280;21913;52.456;13.634;2023-03-23T04:30:54;99009.06;;;11.98;74.19
25156;BME280;21913;52.456;13.634;2023-03-23T04:35:56;99003.88;;;11.98;74.17
25156;BME280;21913;52.456;13.634;2023-03-23T04:41:08;99017.69;;;11.99;74.02
25156;BME280;21913;52.456;13.634;2023-03-23T04:46:19;99016.78;;;12.00;74.26
25156;BME280;21913;52.456;13.634;2023-03-23T04:51:21;99029.78;;;11.98;74.16
25156;BME280;21913;52.456;13.634;2023-03-23T04:56:24;99022.00;;;11.98;74.15
25156;BME280;21913;52.456;13.634;2023-03-23T05:01:26;99017.69;;;11.99;74.15
25156;BME280;21913;52.456;13.634;2023-03-23T05:06:39;99018.56;;;11.98;74.07
25156;BME280;21913;52.456;13.634;2023-03-23T05:11:47;99028.06;;;11.99;74.19
25156;BME280;21913;52.456;13.634;2023-03-23T05:16:47;99025.47;;;11.99;74.15
25156;BME280;21913;52.456;13.634;2023-03-23T05:21:48;99025.47;;;11.99;74.11
25156;BME280;21913;52.456;13.634;2023-03-23T05:26:49;99017.69;;;11.99;74.05
25156;BME280;21913;52.456;13.634;2023-03-23T05:31:56;99018.56;;;11.98;74.10
25156;BME280;21913;52.456;13.634;2023-03-23T05:37:02;99021.13;;;11.99;74.07
25156;BME280;21913;52.456;13.634;2023-03-23T05:42:09;99028.06;;;11.99;74.07
25156;BME280;21913;52.456;13.634;2023-03-23T05:47:44;99030.66;;;11.99;73.92
25156;BME280;21913;52.456;13.634;2023-03-23T05:52:50;99024.59;;;11.98;74.19
25156;BME280;21913;52.456;13.634;2023-03-23T05:57:51;99042.75;;;11.98;74.26
25156;BME280;21913;52.456;13.634;2023-03-23T06:02:59;99040.16;;;11.98;74.19
25156;BME280;21913;52.456;13.634;2023-03-23T06:08:09;99050.56;;;11.97;74.18
25156;BME280;21913;52.456;13.634;2023-03-23T06:13:10;99046.25;;;11.97;74.38
25156;BME280;21913;52.456;13.634;2023-03-23T06:18:18;99054.81;;;11.99;74.18
25156;BME280;21913;52.456;13.634;2023-03-23T06:23:42;99055.72;;;11.98;74.15
25156;BME280;21913;52.456;13.634;2023-03-23T06:28:43;99051.38;;;11.99;74.14
25156;BME280;21913;52.456;13.634;2023-03-23T06:33:43;99066.97;;;11.97;74.01
25156;BME280;21913;52.456;13.634;2023-03-23T06:38:59;99063.50;;;11.98;74.21
25156;BME280;21913;52.456;13.634;2023-03-23T06:44:10;99066.94;;;11.99;74.17
25156;BME280;21913;52.456;13.634;2023-03-23T06:49:11;99062.59;;;11.99;74.15
25156;BME280;21913;52.456;13.634;2023-03-23T06:54:21;99073.91;;;11.95;74.31
25156;BME280;21913;52.456;13.634;2023-03-23T06:59:22;99085.13;;;11.97;74.17
25156;BME280;21913;52.456;13.634;2023-03-23T07:04:23;99080.78;;;11.98;74.25
25156;BME280;21913;52.456;13.634;2023-03-23T07:09:33;99080.84;;;11.96;74.32
25156;BME280;21913;52.456;13.634;2023-03-23T07:14:34;99083.38;;;11.98;74.17
25156;BME280;21913;52.456;13.634;2023-03-23T07:19:34;99086.81;;;11.98;74.25
25156;BME280;21913;52.456;13.634;2023-03-23T07:24:35;99089.41;;;11.98;74.30
25156;BME280;21913;52.456;13.634;2023-03-23T07:29:47;99077.31;;;11.99;74.26
25156;BME280;21913;52.456;13.634;2023-03-23T07:34:56;99083.34;;;11.99;74.26
25156;BME280;21913;52.456;13.634;2023-03-23T07:40:06;99095.44;;;11.99;74.24
25156;BME280;21913;52.456;13.634;2023-03-23T07:45:07;99104.03;;;12.01;74.07
25156;BME280;21913;52.456;13.634;2023-03-23T07:50:11;99095.44;;;11.99;74.22
25156;BME280;21913;52.456;13.634;2023-03-23T07:55:14;99095.41;;;12.00;74.31
25156;BME280;21913;52.456;13.634;2023-03-23T08:00:34;99101.50;;;11.99;74.23
25156;BME280;21913;52.456;13.634;2023-03-23T08:05:38;99092.81;;;12.00;74.08
25156;BME280;21913;52.456;13.634;2023-03-23T08:10:38;99089.38;;;12.00;74.36
25156;BME280;21913;52.456;13.634;2023-03-23T08:16:11;99107.53;;;12.00;74.23
25156;BME280;21913;52.456;13.634;2023-03-23T08:21:40;99107.53;;;12.00;74.21
25156;BME280;21913;52.456;13.634;2023-03-23T08:26:41;99107.53;;;12.00;74.25
25156;BME280;21913;52.456;13.634;2023-03-23T08:32:13;99115.31;;;12.00;74.13
25156;BME280;21913;52.456;13.634;2023-03-23T08:37:39;99110.97;;;12.00;74.25
25156;BME280;21913;52.456;13.634;2023-03-23T08:43:08;99121.34;;;12.00;74.26
25156;BME280;21913;52.456;13.634;2023-03-23T08:48:34;99106.63;;;12.01;74.25
25156;BME280;21913;52.456;13.634;2023-03-23T08:53:57;99128.25;;;12.00;74.22
25156;BME280;21913;52.456;13.634;2023-03-23T08:59:23;99117.84;;;12.01;74.17
25156;BME280;21913;52.456;13.634;2023-03-23T09:04:36;99121.34;;;12.00;74.24
25156;BME280;21913;52.456;13.634;2023-03-23T09:10:10;99121.34;;;12.00;74.19
25156;BME280;21913;52.456;13.634;2023-03-23T09:15:13;99124.78;;;12.01;74.34
25156;BME280;21913;52.456;13.634;2023-03-23T09:20:16;99141.19;;;12.01;74.28
25156;BME280;21913;52.456;13.634;2023-03-23T09:25:20;99133.41;;;12.01;74.20
25156;BME280;21913;52.456;13.634;2023-03-23T09:30:20;99142.06;;;12.02;74.24
25156;BME280;21913;52.456;13.634;2023-03-23T09:35:21;99140.31;;;12.02;74.20
25156;BME280;21913;52.456;13.634;2023-03-23T09:40:25;99159.34;;;12.01;74.33
25156;BME280;21913;52.456;13.634;2023-03-23T09:45:43;99158.47;;;12.02;74.23
25156;BME280;21913;52.456;13.634;2023-03-23T09:50:51;99168.84;;;12.02;74.10
25156;BME280;21913;52.456;13.634;2023-03-23T09:55:53;99169.69;;;12.03;74.26
25156;BME280;21913;52.456;13.634;2023-03-23T10:01:06;99155.88;;;12.02;74.23
25156;BME280;21913;52.456;13.634;2023-03-23T10:06:11;99153.28;;;12.02;74.31
25156;BME280;21913;52.456;13.634;2023-03-23T10:16:24;99165.38;;;12.03;74.25
25156;BME280;21913;52.456;13.634;2023-03-23T10:21:27;99167.09;;;12.03;74.29
25156;BME280;21913;52.456;13.634;2023-03-23T10:31:39;99161.91;;;12.03;74.28
25156;BME280;21913;52.456;13.634;2023-03-23T10:36:51;99173.13;;;12.03;74.01
25156;BME280;21913;52.456;13.634;2023-03-23T10:41:53;99173.13;;;12.03;74.10
25156;BME280;21913;52.456;13.634;2023-03-23T10:46:59;99193.88;;;12.03;74.19
25156;BME280;21913;52.456;13.634;2023-03-23T10:52:12;99214.63;;;12.03;74.26
25156;BME280;21913;52.456;13.634;2023-03-23T11:02:23;99245.72;;;12.03;74.22
25156;BME280;21913;52.456;13.634;2023-03-23T11:07:29;99256.09;;;12.03;74.29
25156;BME280;21913;52.456;13.634;2023-03-23T11:12:33;99258.69;;;12.03;74.14
25156;BME280;21913;52.456;13.634;2023-03-23T11:17:33;99255.25;;;12.03;74.22
25156;BME280;21913;52.456;13.634;2023-03-23T11:22:35;99274.25;;;12.03;74.30
25156;BME280;21913;52.456;13.634;2023-03-23T11:27:38;99281.19;;;12.03;74.17
25156;BME280;21913;52.456;13.634;2023-03-23T11:32:43;99264.78;;;12.02;74.32
25156;BME280;21913;52.456;13.634;2023-03-23T11:37:48;99281.19;;;12.03;74.23
25156;BME280;21913;52.456;13.634;2023-03-23T11:47:58;99281.19;;;12.03;74.14
25156;BME280;21913;52.456;13.634;2023-03-23T11:53:25;99284.63;;;12.03;74.21
25156;BME280;21913;52.456;13.634;2023-03-23T11:58:28;99270.81;;;12.03;74.32
25156;BME280;21913;52.456;13.634;2023-03-23T12:14:41;99272.50;;;12.04;74.31
25156;BME280;21913;52.456;13.634;2023-03-23T12:35:22;99280.31;;;12.02;74.21
25156;BME280;21913;52.456;13.634;2023-03-23T12:40:55;99269.06;;;12.03;74.26
25156;BME280;21913;52.456;13.634;2023-03-23T12:56:37;99285.50;;;12.02;74.25
25156;BME280;21913;52.456;13.634;2023-03-23T13:01:45;99279.44;;;12.03;74.35
25156;BME280;21913;52.456;13.634;2023-03-23T13:06:48;99269.09;;;12.02;74.23
25156;BME280;21913;52.456;13.634;2023-03-23T13:11:49;99266.47;;;12.03;74.29
25156;BME280;21913;52.456;13.634;2023-03-23T13:22:02;99277.75;;;12.02;74.25
25156;BME280;21913;52.456;13.634;2023-03-23T13:27:08;99288.97;;;12.03;74.32
25156;BME280;21913;52.456;13.634;2023-03-23T13:32:16;99282.88;;;12.04;74.29
25156;BME280;21913;52.456;13.634;2023-03-23T13:37:23;99274.25;;;12.03;74.25
25156;BME280;21913;52.456;13.634;2023-03-23T13:42:26;99265.63;;;12.03;74.24
25156;BME280;21913;52.456;13.634;2023-03-23T13:47:34;99241.44;;;12.02;74.42
25156;BME280;21913;52.456;13.634;2023-03-23T13:57:49;99239.69;;;12.03;74.31
25156;BME280;21913;52.456;13.634;2023-03-23T14:02:50;99242.28;;;12.03;74.18
25156;BME280;21913;52.456;13.634;2023-03-23T14:08:22;99240.56;;;12.03;74.37
25156;BME280;21913;52.456;13.634;2023-03-23T14:13:28;99237.97;;;12.03;74.23
25156;BME280;21913;52.456;13.634;2023-03-23T14:18:38;99250.91;;;12.03;74.35
25156;BME280;21913;52.456;13.634;2023-03-23T14:23:39;99254.38;;;12.04;74.19
25156;BME280;21913;52.456;13.634;2023-03-23T14:28:41;99246.59;;;12.04;74.19
25156;BME280;21913;52.456;13.634;2023-03-23T14:33:42;99245.72;;;12.03;74.27
25156;BME280;21913;52.456;13.634;2023-03-23T14:38:42;99254.38;;;12.04;74.29
25156;BME280;21913;52.456;13.634;2023-03-23T14:43:44;99245.72;;;12.03;74.29
25156;BME280;21913;52.456;13.634;2023-03-23T14:48:45;99230.19;;;12.03;74.37
25156;BME280;21913;52.456;13.634;2023-03-23T14:53:46;99233.63;;;12.04;74.29
25156;BME280;21913;52.456;13.634;2023-03-23T14:58:51;99276.81;;;12.05;74.38
25156;BME280;21913;52.456;13.634;2023-03-23T15:03:59;99259.50;;;12.05;74.44
25156;BME280;21913;52.456;13.634;2023-03-23T15:09:02;99245.69;;;12.05;74.38
25156;BME280;21913;52.456;13.634;2023-03-23T15:14:21;99254.31;;;12.05;74.28
25156;BME280;21913;52.456;13.634;2023-03-23T15:19:25;99245.69;;;12.05;74.35
25156;BME280;21913;52.456;13.634;2023-03-23T15:24:34;99236.19;;;12.05;74.41
25156;BME280;21913;52.456;13.634;2023-03-23T15:29:49;99230.19;;;12.03;74.28
25156;BME280;21913;52.456;13.634;2023-03-23T15:34:50;99216.31;;;12.04;74.29
25156;BME280;21913;52.456;13.634;2023-03-23T15:39:51;99189.53;;;12.04;74.29
25156;BME280;21913;52.456;13.634;2023-03-23T15:45:27;99205.06;;;12.05;74.35
25156;BME280;21913;52.456;13.634;2023-03-23T15:55:29;99176.53;;;12.05;74.44
25156;BME280;21913;52.456;13.634;2023-03-23T16:00:35;99182.59;;;12.06;74.35
25156;BME280;21913;52.456;13.634;2023-03-23T16:05:42;99199.88;;;12.05;74.44
25156;BME280;21913;52.456;13.634;2023-03-23T16:10:44;99200.72;;;12.06;74.40
25156;BME280;21913;52.456;13.634;2023-03-23T16:15:46;99193.00;;;12.04;74.50
25156;BME280;21913;52.456;13.634;2023-03-23T16:20:48;99180.88;;;12.05;74.63
25156;BME280;21913;52.456;13.634;2023-03-23T16:25:50;99180.03;;;12.04;74.39
25156;BME280;21913;52.456;13.634;2023-03-23T16:30:52;99171.34;;;12.05;74.37
25156;BME280;21913;52.456;13.634;2023-03-23T16:35:53;99155.81;;;12.05;74.45
25156;BME280;21913;52.456;13.634;2023-03-23T16:40:55;99161.84;;;12.06;74.53
25156;BME280;21913;52.456;13.634;2023-03-23T16:45:56;99184.31;;;12.05;74.35
25156;BME280;21913;52.456;13.634;2023-03-23T16:50:58;99198.13;;;12.06;74.44
25156;BME280;21913;52.456;13.634;2023-03-23T16:55:59;99186.91;;;12.05;74.38
25156;BME280;21913;52.456;13.634;2023-03-23T17:01:01;99180.00;;;12.06;74.40
25156;BME280;21913;52.456;13.634;2023-03-23T17:06:03;99183.44;;;12.06;74.36
25156;BME280;21913;52.456;13.634;2023-03-23T17:11:04;99170.50;;;12.05;74.38
25156;BME280;21913;52.456;13.634;2023-03-23T17:16:06;99176.53;;;12.05;74.33
25156;BME280;21913;52.456;13.634;2023-03-23T17:21:08;99197.28;;;12.05;74.52
25156;BME280;21913;52.456;13.634;2023-03-23T17:26:09;99203.31;;;12.06;74.46
25156;BME280;21913;52.456;13.634;2023-03-23T17:31:11;99211.94;;;12.06;74.52
25156;BME280;21913;52.456;13.634;2023-03-23T17:36:12;99218.88;;;12.06;74.50
25156;BME280;21913;52.456;13.634;2023-03-23T17:41:14;99221.47;;;12.06;74.37
25156;BME280;21913;52.456;13.634;2023-03-23T17:46:15;99225.81;;;12.05;74.58
25156;BME280;21913;52.456;13.634;2023-03-23T17:51:17;99234.44;;;12.06;74.51
25156;BME280;21913;52.456;13.634;2023-03-23T17:56:18;99229.25;;;12.06;74.51
25156;BME280;21913;52.456;13.634;2023-03-23T18:01:20;99231.00;;;12.07;74.40
25156;BME280;21913;52.456;13.634;2023-03-23T18:06:21;99224.97;;;12.05;74.56
25156;BME280;21913;52.456;13.634;2023-03-23T18:11:23;99219.72;;;12.06;74.46
25156;BME280;21913;52.456;13.634;2023-03-23T18:16:25;99217.13;;;12.06;74.51
25156;BME280;21913;52.456;13.634;2023-03-23T18:21:26;99209.34;;;12.06;74.34
25156;BME280;21913;52.456;13.634;2023-03-23T18:26:28;99205.91;;;12.06;74.40
25156;BME280;21913;52.456;13.634;2023-03-23T18:31:29;99199.88;;;12.07;74.24
25156;BME280;21913;52.456;13.634;2023-03-23T18:36:31;99192.94;;;12.06;74.45
25156;BME280;21913;52.456;13.634;2023-03-23T18:41:33;99193.81;;;12.06;74.43
25156;BME280;21913;52.456;13.634;2023-03-23T18:46:34;99184.31;;;12.05;74.42
25156;BME280;21913;52.456;13.634;2023-03-23T18:51:36;99182.59;;;12.06;74.29
25156;BME280;21913;52.456;13.634;2023-03-23T18:56:38;99169.63;;;12.06;74.42
25156;BME280;21913;52.456;13.634;2023-03-23T19:01:39;99168.75;;;12.05;74.31
25156;BME280;21913;52.456;13.634;2023-03-23T19:06:41;99165.28;;;12.06;74.28
25156;BME280;21913;52.456;13.634;2023-03-23T19:11:42;99168.75;;;12.07;74.46
25156;BME280;21913;52.456;13.634;2023-03-23T19:16:44;99157.53;;;12.05;74.44
25156;BME280;21913;52.456;13.634;2023-03-23T19:21:45;99162.69;;;12.06;74.35
25156;BME280;21913;52.456;13.634;2023-03-23T19:26:47;99156.66;;;12.06;74.31
25156;BME280;21913;52.456;13.634;2023-03-23T19:31:49;99156.66;;;12.06;74.32
25156;BME280;21913;52.456;13.634;2023-03-23T19:36:51;99145.44;;;12.05;74.60
25156;BME280;21913;52.456;13.634;2023-03-23T19:41:55;99134.16;;;12.06;74.40
25156;BME280;21913;52.456;13.634;2023-03-23T19:46:56;99142.84;;;12.07;74.50
25156;BME280;21913;52.456;13.634;2023-03-23T19:51:58;99127.28;;;12.05;74.50
25156;BME280;21913;52.456;13.634;2023-03-23T19:57:00;99111.72;;;12.05;74.31
25156;BME280;21913;52.456;13.634;2023-03-23T20:02:02;99119.50;;;12.05;74.42
25156;BME280;21913;52.456;13.634;2023-03-23T20:07:04;99127.28;;;12.05;74.33
25156;BME280;21913;52.456;13.634;2023-03-23T20:12:07;99138.50;;;12.06;74.44
25156;BME280;21913;52.456;13.634;2023-03-23T20:17:10;99116.91;;;12.05;74.12
25156;BME280;21913;52.456;13.634;2023-03-23T20:22:12;99110.84;;;12.06;74.34
25156;BME280;21913;52.456;13.634;2023-03-23T20:27:15;99096.16;;;12.05;74.32
25156;BME280;21913;52.456;13.634;2023-03-23T20:32:18;99093.56;;;12.05;74.40
25156;BME280;21913;52.456;13.634;2023-03-23T20:37:19;99082.31;;;12.06;74.32
25156;BME280;21913;52.456;13.634;2023-03-23T20:42:21;99072.84;;;12.05;74.32
25156;BME280;21913;52.456;13.634;2023-03-23T20:47:22;99072.84;;;12.05;74.38
25156;BME280;21913;52.456;13.634;2023-03-23T20:52:24;99068.50;;;12.06;74.34
25156;BME280;21913;52.456;13.634;2023-03-23T20:57:26;99077.13;;;12.06;74.42
25156;BME280;21913;52.456;13.634;2023-03-23T21:02:27;99074.53;;;12.06;74.46
25156;BME280;21913;52.456;13.634;2023-03-23T21:07:29;99075.44;;;12.05;74.42
25156;BME280;21913;52.456;13.634;2023-03-23T21:12:30;99068.50;;;12.06;74.27
25156;BME280;21913;52.456;13.634;2023-03-23T21:17:32;99065.91;;;12.06;74.24
25156;BME280;21913;52.456;13.634;2023-03-23T21:22:33;99053.78;;;12.06;74.39
25156;BME280;21913;52.456;13.634;2023-03-23T21:27:35;99045.16;;;12.06;74.27
25156;BME280;21913;52.456;13.634;2023-03-23T21:32:37;99039.13;;;12.07;74.33
25156;BME280;21913;52.456;13.634;2023-03-23T21:37:38;99032.19;;;12.07;74.35
25156;BME280;21913;52.456;13.634;2023-03-23T21:42:40;99022.69;;;12.06;74.23
25156;BME280;21913;52.456;13.634;2023-03-23T21:47:41;99014.06;;;12.06;74.32
25156;BME280;21913;52.456;13.634;2023-03-23T21:52:43;99003.69;;;12.06;74.27
25156;BME280;21913;52.456;13.634;2023-03-23T21:57:44;99000.22;;;12.07;74.26
25156;BME280;21913;52.456;13.634;2023-03-23T22:02:46;98985.53;;;12.06;74.37
25156;BME280;21913;52.456;13.634;2023-03-23T22:07:47;98982.94;;;12.07;74.40
25156;BME280;21913;52.456;13.634;2023-03-23T22:12:49;98973.44;;;12.06;74.32
25156;BME280;21913;52.456;13.634;2023-03-23T22:17:50;98970.84;;;12.06;74.38
25156;BME280;21913;52.456;13.634;2023-03-23T22:22:52;98960.47;;;12.06;74.42
25156;BME280;21913;52.456;13.634;2023-03-23T22:27:56;98965.66;;;12.06;74.30
25156;BME280;21913;52.456;13.634;2023-03-23T22:32:59;98958.75;;;12.07;74.24
25156;BME280;21913;52.456;13.634;2023-03-23T22:38:01;98960.47;;;12.06;74.33
25156;BME280;21913;52.456;13.634;2023-03-23T22:43:02;98956.16;;;12.07;74.39
25156;BME280;21913;52.456;13.634;2023-03-23T22:48:03;98949.22;;;12.07;74.31
25156;BME280;21913;52.456;13.634;2023-03-23T22:53:05;98941.44;;;12.07;74.43
25156;BME280;21913;52.456;13.634;2023-03-23T22:58:06;98947.47;;;12.08;74.21
25156;BME280;21913;52.456;13.634;2023-03-23T23:03:08;98944.91;;;12.06;74.31
25156;BME280;21913;52.456;13.634;2023-03-23T23:08:11;98935.41;;;12.07;74.40
25156;BME280;21913;52.456;13.634;2023-03-23T23:13:13;98932.81;;;12.07;74.26
25156;BME280;21913;52.456;13.634;2023-03-23T23:18:17;98922.44;;;12.07;74.32
25156;BME280;21913;52.456;13.634;2023-03-23T23:23:20;98919.84;;;12.07;74.29
25156;BME280;21913;52.456;13.634;2023-03-23T23:28:22;98920.72;;;12.07;74.24
25156;BME280;21913;52.456;13.634;2023-03-23T23:33:24;98924.16;;;12.06;74.42
25156;BME280;21913;52.456;13.634;2023-03-23T23:38:25;98915.53;;;12.07;74.37
25156;BME280;21913;52.456;13.634;2023-03-23T23:43:27;98907.75;;;12.07;74.46
25156;BME280;21913;52.456;13.634;2023-03-23T23:48:28;98905.16;;;12.07;74.44
25156;BME280;21913;52.456;13.634;2023-03-23T23:53:30;98887.84;;;12.08;74.43
25156;BME280;21913;52.456;13.634;2023-03-23T23:58:32;98881.81;;;12.07;74.46
